Time;durP1;ratioP1;P1;durP2;ratioP2;P2;SDS_P1;SDS_P2;PMS_P1;PMS_P2;Temp;Humidity;BMP_temperature;BMP_pressure;BME280_temperature;BME280_humidity;BME280_pressure;Samples;Min_cycle;Max_cycle;Signal;HPM_P1;HPM_P2
2023/02/27 00:01:12;;;;;;;;;7.83;3.50;;;;;3.56;43.21;102241.31;2045128;28;2745061;-74
2023/02/27 00:02:25;;;;;;;;;5.00;5.00;;;;;3.54;43.54;102236.09;2045019;28;2744015;-74
2023/02/27 00:03:38;;;;;;;;;8.50;5.17;;;;;3.53;43.43;102241.28;2051888;28;2737813;-74
2023/02/27 00:04:53;;;;;;;;;4.17;4.17;;;;;3.51;43.23;102241.22;2051452;28;2747143;-74
2023/02/27 00:06:06;;;;;;;;;7.33;6.33;;;;;3.49;43.42;102243.81;2052352;28;2738826;-74
2023/02/27 00:07:24;;;;;;;;;9.17;6.50;;;;;3.48;43.25;102243.78;2051884;27;2736727;-74
2023/02/27 00:08:37;;;;;;;;;6.00;5.33;;;;;3.47;43.61;102239.41;2052727;28;2735706;-74
2023/02/27 00:09:52;;;;;;;;;7.33;7.17;;;;;3.44;43.15;102234.16;2050648;27;2742963;-74
2023/02/27 00:11:05;;;;;;;;;8.00;6.17;;;;;3.42;43.23;102236.72;2048908;27;2736728;-74
2023/02/27 00:12:18;;;;;;;;;7.83;6.17;;;;;3.41;43.21;102231.50;2044053;28;2737792;-74
2023/02/27 00:13:31;;;;;;;;;7.00;6.67;;;;;3.40;43.77;102232.34;2044589;28;2742970;-74
2023/02/27 00:14:45;;;;;;;;;8.50;8.00;;;;;3.42;43.55;102236.72;2042702;28;2745120;-74
2023/02/27 00:15:55;;;;;;;;;8.00;8.00;;;;;3.41;43.48;102234.97;2017930;28;2745595;-74
2023/02/27 00:17:06;;;;;;;;;8.00;8.00;;;;;3.40;43.64;102230.63;2052714;28;2733985;-74
2023/02/27 00:18:20;;;;;;;;;12.33;7.33;;;;;3.37;43.19;102234.03;2030051;27;2757571;-74
2023/02/27 00:19:33;;;;;;;;;7.50;6.17;;;;;3.37;43.48;102238.34;2052248;28;2739840;-74
2023/02/27 00:20:47;;;;;;;;;8.00;6.83;;;;;3.34;43.18;102231.34;2052482;28;2740344;-74
2023/02/27 00:22:00;;;;;;;;;9.00;6.83;;;;;3.32;43.25;102235.66;2043844;28;2764851;-74
2023/02/27 00:23:11;;;;;;;;;14.00;10.00;;;;;3.31;43.43;102226.09;2016495;28;3506490;-74
2023/02/27 00:24:21;;;;;;;;;11.00;10.00;;;;;3.31;44.50;102231.28;2030651;28;2778862;-74
2023/02/27 00:25:34;;;;;;;;;15.00;10.67;;;;;3.30;43.80;102231.25;2039645;27;3507598;-74
2023/02/27 00:26:47;;;;;;;;;8.83;8.67;;;;;3.29;43.77;102235.56;2052967;28;2747187;-74
2023/02/27 00:28:00;;;;;;;;;11.50;9.00;;;;;3.28;44.18;102226.03;2051499;28;2769014;-74
2023/02/27 00:29:11;;;;;;;;;12.33;10.00;;;;;3.28;44.18;102238.16;2026289;27;2777408;-74
2023/02/27 00:30:25;;;;;;;;;8.00;7.33;;;;;3.27;43.91;102229.47;2052822;28;2733618;-74
2023/02/27 00:31:35;;;;;;;;;11.00;9.67;;;;;3.25;43.93;102225.97;2003029;27;2774223;-74
2023/02/27 00:32:46;;;;;;;;;7.33;5.00;;;;;3.26;43.88;102230.31;2051856;27;2740918;-74
2023/02/27 00:34:00;;;;;;;;;9.67;7.33;;;;;3.26;44.13;102222.50;2028160;27;2766927;-74
2023/02/27 00:35:11;;;;;;;;;14.33;9.33;;;;;3.25;44.29;102234.66;2019292;28;2768041;-74
2023/02/27 00:36:24;;;;;;;;;7.17;7.17;;;;;3.23;44.03;102231.16;2044340;28;2732568;-74
2023/02/27 00:37:38;;;;;;;;;9.17;9.17;;;;;3.22;43.88;102234.56;2047873;28;2744046;-74
2023/02/27 00:38:51;;;;;;;;;7.83;7.83;;;;;3.22;43.89;102238.88;2052752;27;2735697;-74
2023/02/27 00:40:05;;;;;;;;;11.33;7.33;;;;;3.22;44.39;102231.09;2052261;27;2759653;-74
2023/02/27 00:41:18;;;;;;;;;7.33;7.17;;;;;3.22;44.05;102218.97;2053116;28;2740957;-74
2023/02/27 00:42:33;;;;;;;;;8.83;7.00;;;;;3.23;44.47;102232.84;2052176;27;2740887;-74
2023/02/27 00:43:46;;;;;;;;;8.33;6.33;;;;;3.22;44.33;102233.69;2052671;27;2730475;-74
2023/02/27 00:44:59;;;;;;;;;9.17;8.17;;;;;3.22;44.34;102228.50;2048173;27;2739896;-74
2023/02/27 00:46:13;;;;;;;;;8.00;5.17;;;;;3.22;44.68;102229.38;2052804;28;2745041;-74
2023/02/27 00:47:26;;;;;;;;;6.67;4.17;;;;;3.23;44.11;102230.25;2052776;28;2740907;-74
2023/02/27 00:48:39;;;;;;;;;8.67;8.67;;;;;3.20;44.63;102230.19;2052423;28;2735709;-74
2023/02/27 00:49:52;;;;;;;;;3.33;2.00;;;;;3.18;44.51;102231.88;2044397;28;2754954;-74
2023/02/27 00:51:06;;;;;;;;;7.67;7.00;;;;;3.17;44.40;102228.41;2050972;28;2734629;-74
2023/02/27 00:52:19;;;;;;;;;8.00;8.00;;;;;3.18;44.37;102231.88;2045469;28;2735726;-74
2023/02/27 00:53:32;;;;;;;;;7.67;7.67;;;;;3.17;44.16;102231.00;2049511;28;2740890;-74
2023/02/27 00:54:45;;;;;;;;;7.83;7.00;;;;;3.18;44.43;102226.69;2053512;27;2732569;-74
2023/02/27 00:55:58;;;;;;;;;8.67;6.83;;;;;3.15;45.18;102223.19;2050552;27;2738807;-74
2023/02/27 00:57:12;;;;;;;;;9.33;8.00;;;;;3.16;43.91;102234.44;2044450;28;2738820;-74
2023/02/27 00:58:25;;;;;;;;;9.17;6.83;;;;;3.17;44.82;102243.09;2047437;28;2749722;-74
2023/02/27 00:59:38;;;;;;;;;9.17;7.33;;;;;3.16;44.87;102234.44;2045617;28;2738831;-74
2023/02/27 01:00:51;;;;;;;;;8.83;7.17;;;;;3.15;44.70;102241.38;2051077;27;2748182;-74
2023/02/27 01:02:04;;;;;;;;;4.67;4.67;;;;;3.15;44.22;102237.88;2049989;28;2748200;-74
2023/02/27 01:03:18;;;;;;;;;9.33;8.50;;;;;3.14;43.88;102229.19;2059433;27;2766942;-74
2023/02/27 01:04:31;;;;;;;;;8.67;7.33;;;;;3.13;44.33;102240.47;2052582;28;2740384;-74
2023/02/27 01:05:44;;;;;;;;;8.67;7.83;;;;;3.13;44.31;102224.88;2052822;28;2728391;-74
2023/02/27 01:06:57;;;;;;;;;6.83;4.67;;;;;3.13;44.26;102232.66;2051114;27;2747161;-74
2023/02/27 01:08:11;;;;;;;;;10.33;5.67;;;;;3.13;44.63;102236.97;2043875;28;2760685;-74
2023/02/27 01:09:24;;;;;;;;;9.50;7.83;;;;;3.12;45.13;102233.50;2049021;28;2757569;-74
2023/02/27 01:10:37;;;;;;;;;7.00;7.00;;;;;3.11;44.56;102230.88;2053646;27;2728940;-74
2023/02/27 01:11:47;;;;;;;;;9.67;8.00;;;;;3.10;44.52;102229.09;2025864;28;2761751;-74
2023/02/27 01:12:59;;;;;;;;;8.00;7.00;;;;;3.09;44.83;102223.03;2042511;28;2740900;-74
2023/02/27 01:14:12;;;;;;;;;8.00;7.00;;;;;3.07;44.91;102227.31;2028550;28;2729440;-74
2023/02/27 01:15:25;;;;;;;;;12.33;6.17;;;;;3.07;44.19;102229.91;2050897;27;2778400;-74
2023/02/27 01:16:38;;;;;;;;;10.50;8.00;;;;;3.05;44.86;102226.41;2051835;28;2758637;-74
2023/02/27 01:17:51;;;;;;;;;8.33;8.33;;;;;3.06;44.13;102222.97;2052507;28;2744011;-74
2023/02/27 01:19:02;;;;;;;;;10.67;8.33;;;;;3.06;44.49;102222.97;2025579;27;2764903;-74
2023/02/27 01:20:15;;;;;;;;;8.20;8.20;;;;;3.07;45.02;102218.63;2053897;28;2726783;-74
2023/02/27 01:21:28;;;;;;;;;9.83;7.17;;;;;3.04;44.67;102220.31;2059664;27;2754462;-74
2023/02/27 01:22:42;;;;;;;;;7.00;6.83;;;;;3.06;44.76;102222.97;2049413;28;2743465;-74
2023/02/27 01:23:55;;;;;;;;;7.67;7.00;;;;;3.05;44.89;102218.59;2049669;28;2741936;-74
2023/02/27 01:25:09;;;;;;;;;8.00;5.67;;;;;3.03;44.34;102228.97;2052814;27;2745116;-74
2023/02/27 01:26:22;;;;;;;;;7.67;7.67;;;;;3.03;45.11;102220.28;2051485;28;2735686;-74
2023/02/27 01:27:35;;;;;;;;;8.00;7.50;;;;;3.01;44.90;102219.38;2052129;28;2732576;-74
2023/02/27 01:28:48;;;;;;;;;7.83;6.83;;;;;3.01;45.43;102232.38;2053321;28;2740988;-74
2023/02/27 01:30:02;;;;;;;;;9.00;7.83;;;;;2.99;44.89;102224.53;2053535;27;2731527;-74
2023/02/27 01:31:15;;;;;;;;;8.50;6.67;;;;;2.98;44.43;102221.91;2053174;28;2746154;-74
2023/02/27 01:32:26;;;;;;;;;7.00;5.00;;;;;2.97;45.29;102225.34;2017671;28;2755497;-74
2023/02/27 01:33:37;;;;;;;;;7.33;7.33;;;;;2.97;45.19;102225.34;2044127;28;2736763;-74
2023/02/27 01:34:50;;;;;;;;;6.67;6.50;;;;;2.96;44.80;102227.09;2051471;28;2739876;-74
2023/02/27 01:36:04;;;;;;;;;5.00;4.33;;;;;2.93;45.25;102221.81;2052548;27;2743006;-74
2023/02/27 01:37:17;;;;;;;;;8.67;7.00;;;;;2.92;45.15;102228.72;2050195;28;2760708;-74
2023/02/27 01:38:30;;;;;;;;;7.83;7.67;;;;;2.91;45.32;102236.47;2043294;28;2746116;-74
2023/02/27 01:39:44;;;;;;;;;4.67;4.67;;;;;2.89;45.35;102218.25;2050121;28;2745045;-74
2023/02/27 01:40:59;;;;;;;;;5.00;5.00;;;;;2.89;44.62;102220.84;2052538;28;2746125;-74
2023/02/27 01:42:22;;;;;;;;;6.33;6.33;;;;;2.89;45.15;102217.41;2052890;28;2739848;-74
2023/02/27 01:44:03;;;;;;;;;5.50;4.50;;;;;2.88;45.74;102226.91;2044547;28;2742965;-74
2023/02/27 01:45:27;;;;;;;;;4.00;3.33;;;;;2.87;45.55;102232.91;2052140;28;2745064;-74
2023/02/27 01:46:41;;;;;;;;;9.00;7.33;;;;;2.88;45.37;102233.81;2052790;27;2739883;-74
2023/02/27 01:48:20;;;;;;;;;8.00;7.00;;;;;2.86;45.56;102217.31;2044941;27;2746095;-74
2023/02/27 01:49:33;;;;;;;;;7.33;6.50;;;;;2.85;45.73;102215.53;2052907;28;2735687;-74
2023/02/27 01:50:56;;;;;;;;;13.17;8.67;;;;;2.85;45.22;102221.63;2052863;27;2748181;-74
2023/02/27 01:52:10;;;;;;;;;9.67;8.17;;;;;2.85;44.95;102225.94;2027144;27;2744047;-74
2023/02/27 01:53:25;;;;;;;;;8.83;7.67;;;;;2.85;45.65;102229.41;2046810;28;2739833;-74
2023/02/27 01:54:41;;;;;;;;;12.00;10.00;;;;;2.87;45.69;102221.66;2024664;28;3494009;-74
2023/02/27 01:55:57;;;;;;;;;8.67;8.67;;;;;2.86;45.51;102220.78;2021888;27;2757049;-74
2023/02/27 01:57:10;;;;;;;;;8.17;8.17;;;;;2.84;45.35;102219.00;2045969;28;2736072;-74
2023/02/27 01:58:25;;;;;;;;;9.00;7.67;;;;;2.81;44.95;102223.25;2045180;28;2747513;-74
2023/02/27 01:59:41;;;;;;;;;8.00;7.00;;;;;2.79;44.95;102217.16;2047247;28;2746118;-74
2023/02/27 02:00:55;;;;;;;;;8.17;8.00;;;;;2.80;45.66;102220.63;2044206;28;2734073;-74
2023/02/27 02:02:17;;;;;;;;;7.83;6.67;;;;;2.79;45.44;102213.69;2044417;28;2739873;-74
2023/02/27 02:03:55;;;;;;;;;5.67;5.33;;;;;2.81;45.93;102222.41;2049938;28;2744034;-74
2023/02/27 02:05:06;;;;;;;;;9.00;8.67;;;;;2.80;45.16;102216.31;2025925;28;2740222;-74
2023/02/27 02:06:20;;;;;;;;;8.00;7.67;;;;;2.81;45.96;102212.00;2051654;27;2739856;-74
2023/02/27 02:07:37;;;;;;;;;10.00;8.67;;;;;2.81;45.40;102204.22;2051570;27;2760697;-74
2023/02/27 02:08:54;;;;;;;;;7.50;5.17;;;;;2.81;45.56;102217.22;2052350;28;2739873;-74
2023/02/27 02:10:11;;;;;;;;;9.00;6.17;;;;;2.82;45.55;102211.16;2050022;28;2762873;-74
2023/02/27 02:11:25;;;;;;;;;10.17;7.00;;;;;2.82;45.86;102213.75;2052432;27;2751298;-74
2023/02/27 02:12:39;;;;;;;;;8.67;8.00;;;;;2.80;46.30;102210.25;2051886;27;2732570;-74
2023/02/27 02:13:55;;;;;;;;;10.33;8.00;;;;;2.76;45.44;102204.13;2026019;27;2757549;-74
2023/02/27 02:15:09;;;;;;;;;7.00;7.00;;;;;2.74;46.09;102207.53;2051762;28;2732938;-74
2023/02/27 02:16:42;;;;;;;;;7.33;7.33;;;;;2.72;46.32;102202.28;2052339;28;2736723;-74
2023/02/27 02:18:30;;;;;;;;;11.00;6.50;;;;;2.72;45.80;102201.41;2048316;28;2761731;-74
2023/02/27 02:19:58;;;;;;;;;7.83;6.83;;;;;2.72;46.72;102201.41;2034814;28;2736759;-74
2023/02/27 02:21:39;;;;;;;;;10.83;9.50;;;;;2.69;45.79;102203.06;2037460;28;2754547;-74
2023/02/27 02:23:14;;;;;;;;;8.50;7.50;;;;;2.69;45.46;102210.00;2020459;28;2736720;-74
2023/02/27 02:25:06;;;;;;;;;6.50;6.50;;;;;2.67;45.46;102203.88;2052090;28;2742986;-74
2023/02/27 02:26:40;;;;;;;;;7.83;5.33;;;;;2.65;46.01;102202.97;2041722;28;2741944;-74
2023/02/27 02:27:53;;;;;;;;;7.67;6.17;;;;;2.64;46.21;102202.06;2045059;28;2740891;-74
2023/02/27 02:29:43;;;;;;;;;8.33;7.50;;;;;2.65;45.99;102201.25;2050856;28;2736734;-74
2023/02/27 02:31:14;;;;;;;;;6.17;5.67;;;;;2.63;45.89;102212.44;2052733;28;2747173;-74
2023/02/27 02:32:50;;;;;;;;;13.33;10.67;;;;;2.59;46.40;102204.56;2023692;27;2777438;-74
2023/02/27 02:34:25;;;;;;;;;10.17;8.00;;;;;2.56;45.65;102198.44;2050746;28;2753390;-74
2023/02/27 02:35:59;;;;;;;;;10.67;7.83;;;;;2.55;46.34;102207.94;2052556;28;2751336;-74
2023/02/27 02:37:51;;;;;;;;;9.83;8.33;;;;;2.53;46.16;102196.66;2050471;28;2734649;-74
2023/02/27 02:39:22;;;;;;;;;10.17;7.17;;;;;2.56;46.39;102201.91;2026058;28;2754452;-74
2023/02/27 02:40:51;;;;;;;;;8.50;8.50;;;;;2.57;46.55;102206.25;2052154;27;2729429;-74
2023/02/27 02:42:13;;;;;;;;;7.83;7.83;;;;;2.58;46.07;102199.34;2052447;28;2736040;-74
2023/02/27 02:43:40;;;;;;;;;10.67;7.00;;;;;2.58;46.39;102194.16;2025892;27;2759667;-73
2023/02/27 02:45:03;;;;;;;;;7.83;6.83;;;;;2.59;46.30;102201.13;2050749;27;2736712;-74
2023/02/27 02:46:40;;;;;;;;;3.33;3.33;;;;;2.60;45.95;102208.06;2052972;27;2732632;-74
2023/02/27 02:48:10;;;;;;;;;7.50;6.50;;;;;2.60;46.83;102197.66;2051201;28;2750320;-74
2023/02/27 02:49:23;;;;;;;;;6.17;6.17;;;;;2.61;45.95;102196.84;2053616;27;2740921;-74
2023/02/27 02:51:04;;;;;;;;;6.00;6.00;;;;;2.62;46.12;102195.97;2053004;28;2734656;-74
2023/02/27 02:52:42;;;;;;;;;10.17;7.00;;;;;2.63;45.91;102194.25;2043891;28;2741939;-74
2023/02/27 02:54:08;;;;;;;;;1.50;1.33;;;;;2.62;45.88;102200.31;2052535;28;2744004;-74
2023/02/27 02:55:49;;;;;;;;;8.00;6.33;;;;;2.61;45.66;102198.56;2050240;28;2743080;-74
2023/02/27 02:57:10;;;;;;;;;6.00;3.33;;;;;2.59;46.36;102204.56;2051071;28;2746091;-74
2023/02/27 02:58:59;;;;;;;;;8.67;7.50;;;;;2.59;46.90;102191.59;2052586;27;2746133;-74
2023/02/27 03:00:19;;;;;;;;;7.50;6.67;;;;;2.59;45.92;102195.94;2043397;28;2746091;-74
2023/02/27 03:01:41;;;;;;;;;7.33;7.33;;;;;2.58;46.00;102191.56;2043490;28;2737782;-74
2023/02/27 03:03:04;;;;;;;;;7.50;7.17;;;;;2.59;46.21;102194.19;2043762;28;2741241;-74
2023/02/27 03:04:26;;;;;;;;;10.00;8.50;;;;;2.60;45.95;102195.06;2050011;28;2750289;-74
2023/02/27 03:05:46;;;;;;;;;8.33;7.17;;;;;2.61;45.61;102194.25;2049758;28;2732581;-74
2023/02/27 03:07:25;;;;;;;;;8.17;7.33;;;;;2.63;46.15;102186.47;2054065;27;2737777;-74
2023/02/27 03:08:48;;;;;;;;;6.17;6.17;;;;;2.61;46.57;102196.84;2051554;27;2741947;-74
2023/02/27 03:10:04;;;;;;;;;8.00;8.00;;;;;2.62;45.93;102185.59;2052867;27;2744038;-74
2023/02/27 03:11:19;;;;;;;;;7.00;7.00;;;;;2.63;46.80;102187.38;2052000;27;2735670;-74
2023/02/27 03:12:35;;;;;;;;;8.67;5.33;;;;;2.64;46.08;102183.91;2047405;27;2737193;-74
2023/02/27 03:13:55;;;;;;;;;8.00;6.17;;;;;2.64;45.84;102189.09;2049297;28;2739871;-74
2023/02/27 03:15:18;;;;;;;;;6.67;6.67;;;;;2.62;45.84;102190.78;2052517;27;2739340;-74
2023/02/27 03:16:39;;;;;;;;;4.67;4.67;;;;;2.61;46.23;102186.44;2049631;27;2748185;-74
2023/02/27 03:18:34;;;;;;;;;9.00;6.67;;;;;2.62;46.02;102198.56;2043978;28;2744016;-74
2023/02/27 03:20:05;;;;;;;;;7.50;6.67;;;;;2.61;46.13;102199.44;2042450;28;2735758;-74
2023/02/27 03:21:35;;;;;;;;;5.83;5.00;;;;;2.62;46.46;102200.31;2038443;28;2742981;-74
2023/02/27 03:22:54;;;;;;;;;7.17;7.00;;;;;2.63;46.07;102194.25;2046263;28;2731504;-74
2023/02/27 03:24:14;;;;;;;;;7.50;6.33;;;;;2.63;45.87;102202.94;2052391;27;2745065;-74
2023/02/27 03:25:28;;;;;;;;;8.17;7.00;;;;;2.63;46.42;102205.53;2051875;28;2739829;-74
2023/02/27 03:26:46;;;;;;;;;8.17;8.17;;;;;2.63;46.34;102202.94;2044038;28;2740950;-74
2023/02/27 03:28:05;;;;;;;;;6.00;6.00;;;;;2.62;46.60;102214.16;2044477;28;2736759;-74
2023/02/27 03:29:28;;;;;;;;;7.67;7.67;;;;;2.64;46.34;102209.88;2051941;28;2729421;-74
2023/02/27 03:30:59;;;;;;;;;7.17;5.33;;;;;2.63;46.36;102208.13;2051837;28;2750280;-74
2023/02/27 03:32:20;;;;;;;;;6.83;6.00;;;;;2.63;46.25;102200.34;2051989;27;2746582;-74
2023/02/27 03:33:47;;;;;;;;;8.00;7.17;;;;;2.64;45.76;102209.88;2053066;28;2731542;-74
2023/02/27 03:35:03;;;;;;;;;2.00;2.00;;;;;2.64;45.83;102204.69;2045368;28;2736740;-74
2023/02/27 03:36:44;;;;;;;;;6.50;6.17;;;;;2.64;46.36;102209.88;2050610;28;2750249;-73
2023/02/27 03:38:08;;;;;;;;;7.17;6.67;;;;;2.62;46.97;102216.75;2044753;28;2751347;-73
2023/02/27 03:39:38;;;;;;;;;6.67;6.67;;;;;2.62;45.85;102214.16;2052241;28;2738834;-74
2023/02/27 03:41:07;;;;;;;;;6.00;6.00;;;;;2.61;46.47;102220.19;2051686;27;2746156;-74
2023/02/27 03:42:31;;;;;;;;;6.33;6.33;;;;;2.60;45.96;102210.66;2050208;28;2741284;-74
2023/02/27 03:44:08;;;;;;;;;6.33;6.33;;;;;2.62;46.67;102215.91;2050830;28;2747133;-74
2023/02/27 03:45:37;;;;;;;;;5.00;5.00;;;;;2.60;45.55;102218.44;2051660;28;2739891;-74
2023/02/27 03:46:50;;;;;;;;;5.67;5.67;;;;;2.58;46.76;102213.22;2050611;28;2743006;-74
2023/02/27 03:48:05;;;;;;;;;7.00;5.33;;;;;2.57;45.40;102206.25;2051233;28;2744007;-74
2023/02/27 03:49:19;;;;;;;;;5.67;4.33;;;;;2.58;45.87;102207.13;2043611;28;2750273;-74
2023/02/27 03:50:34;;;;;;;;;8.33;6.67;;;;;2.56;46.21;102214.00;2050655;28;2730493;-74
2023/02/27 03:51:47;;;;;;;;;4.00;4.00;;;;;2.56;45.99;102206.22;2054042;27;2741924;-74
2023/02/27 03:53:05;;;;;;;;;3.50;2.67;;;;;2.55;46.34;102209.66;2054766;28;2739883;-74
2023/02/27 03:54:30;;;;;;;;;8.50;4.00;;;;;2.52;46.35;102200.06;2054152;27;2751307;-74
2023/02/27 03:55:46;;;;;;;;;7.50;6.67;;;;;2.52;45.77;102205.25;2052718;28;2748238;-74
2023/02/27 03:57:05;;;;;;;;;9.67;7.00;;;;;2.49;45.99;102196.53;2056479;27;2764878;-74
2023/02/27 03:58:18;;;;;;;;;6.17;5.17;;;;;2.46;46.13;102208.59;2057111;27;2744034;-74
2023/02/27 03:59:32;;;;;;;;;3.67;3.67;;;;;2.47;46.18;102209.47;2048710;28;2736744;-74
2023/02/27 04:00:46;;;;;;;;;5.33;5.33;;;;;2.47;46.37;102204.28;2052824;28;2744012;-74
2023/02/27 04:02:02;;;;;;;;;5.00;4.67;;;;;2.47;46.27;102202.56;2052846;28;2747137;-74
2023/02/27 04:03:15;;;;;;;;;5.50;5.00;;;;;2.47;46.15;102207.75;2051372;28;2740345;-74
2023/02/27 04:04:34;;;;;;;;;6.00;6.00;;;;;2.46;46.31;102213.78;2045600;28;2752349;-74
2023/02/27 04:05:48;;;;;;;;;6.67;6.67;;;;;2.46;46.23;102215.50;2046859;28;2742981;-73
2023/02/27 04:07:21;;;;;;;;;7.33;6.00;;;;;2.45;47.08;102225.00;2049124;27;2743001;-73
2023/02/27 04:09:14;;;;;;;;;7.50;6.33;;;;;2.45;46.28;102219.81;2044292;28;2741924;-73
2023/02/27 04:10:54;;;;;;;;;8.17;6.17;;;;;2.48;46.42;102216.41;2042286;28;2745103;-74
2023/02/27 04:12:40;;;;;;;;;5.67;5.67;;;;;2.49;46.93;102225.97;2037135;28;2748177;-74
2023/02/27 04:14:09;;;;;;;;;10.33;6.67;;;;;2.50;46.29;102226.81;2022243;28;2762205;-74
2023/02/27 04:15:59;;;;;;;;;3.67;3.67;;;;;2.50;46.34;102232.03;2052954;28;2747156;-74
2023/02/27 04:17:22;;;;;;;;;6.83;6.83;;;;;2.46;46.40;102234.56;2047318;28;2742994;-74
2023/02/27 04:18:35;;;;;;;;;6.83;6.50;;;;;2.44;46.07;102233.66;2045201;28;2738811;-74
2023/02/27 04:20:12;;;;;;;;;6.67;5.67;;;;;2.42;46.54;102231.84;2051276;28;2750799;-74
2023/02/27 04:21:34;;;;;;;;;6.83;5.00;;;;;2.43;46.87;102233.59;2054128;28;2741927;-74
2023/02/27 04:22:56;;;;;;;;;6.00;6.00;;;;;2.41;46.54;102238.75;2053093;28;2746126;-74
2023/02/27 04:24:15;;;;;;;;;9.83;6.83;;;;;2.41;46.49;102233.56;2046381;28;2754436;-74
2023/02/27 04:25:44;;;;;;;;;6.67;5.67;;;;;2.42;46.43;102237.91;2052496;28;2739188;-74
2023/02/27 04:27:09;;;;;;;;;6.17;5.67;;;;;2.42;46.56;102240.50;2052742;27;2742966;-74
2023/02/27 04:28:37;;;;;;;;;4.00;4.00;;;;;2.42;46.97;102244.81;2053977;28;2752872;-74
2023/02/27 04:30:17;;;;;;;;;7.83;6.33;;;;;2.42;47.03;102242.22;2052906;28;2735694;-74
2023/02/27 04:31:54;;;;;;;;;8.00;6.83;;;;;2.41;46.27;102243.94;2042747;27;2729424;-74
2023/02/27 04:33:22;;;;;;;;;7.33;7.33;;;;;2.44;46.68;102238.84;2053561;27;2738807;-74
2023/02/27 04:34:42;;;;;;;;;4.83;4.83;;;;;2.46;46.87;102241.47;2052030;27;2731519;-74
2023/02/27 04:36:04;;;;;;;;;6.17;6.00;;;;;2.47;47.03;102238.91;2050236;28;2748178;-74
2023/02/27 04:37:27;;;;;;;;;6.67;6.17;;;;;2.47;46.41;102233.69;2045701;28;2748174;-73
2023/02/27 04:39:01;;;;;;;;;7.33;7.33;;;;;2.45;46.74;102237.09;2052896;28;2733602;-73
2023/02/27 04:40:23;;;;;;;;;6.50;5.50;;;;;2.44;47.27;102240.56;2047448;28;2745064;-73
2023/02/27 04:41:51;;;;;;;;;6.17;6.17;;;;;2.42;47.43;102248.28;2052660;28;2746083;-73
2023/02/27 04:43:08;;;;;;;;;9.00;8.00;;;;;2.41;47.09;102241.34;2052961;27;2731536;-73
2023/02/27 04:44:24;;;;;;;;;9.17;8.17;;;;;2.42;46.81;102245.69;2049551;27;2744031;-73
2023/02/27 04:45:40;;;;;;;;;10.50;7.67;;;;;2.41;46.82;102248.25;2052567;28;2759655;-73
2023/02/27 04:46:57;;;;;;;;;9.00;7.00;;;;;2.39;47.14;102256.00;2052791;27;2733618;-73
2023/02/27 04:48:23;;;;;;;;;5.50;5.17;;;;;2.41;46.83;102248.25;2052427;28;2741944;-74
2023/02/27 04:49:44;;;;;;;;;5.33;5.00;;;;;2.41;47.20;102248.25;2050334;28;2743992;-74
2023/02/27 04:51:08;;;;;;;;;4.00;3.67;;;;;2.40;47.13;102247.38;2052833;27;2754439;-74
2023/02/27 04:52:49;;;;;;;;;5.33;5.33;;;;;2.40;47.33;102242.19;2051139;27;2746099;-74
2023/02/27 04:54:12;;;;;;;;;3.67;3.67;;;;;2.35;46.44;102248.97;2049520;28;2749239;-74
2023/02/27 04:55:38;;;;;;;;;6.83;6.33;;;;;2.33;47.76;102256.72;2052934;28;2742969;-74
2023/02/27 04:56:56;;;;;;;;;8.00;7.00;;;;;2.32;47.39;102254.09;2053844;27;2730486;-74
2023/02/27 04:58:16;;;;;;;;;9.67;8.33;;;;;2.29;47.58;102260.06;2053668;27;2746083;-74
2023/02/27 04:59:35;;;;;;;;;5.33;5.33;;;;;2.28;47.39;102241.84;2060738;27;2744014;-73
2023/02/27 05:01:12;;;;;;;;;8.33;7.50;;;;;2.28;47.24;102247.94;2059377;27;2738210;-73
2023/02/27 05:02:36;;;;;;;;;6.83;5.00;;;;;2.31;47.87;102252.31;2048409;28;2740243;-74
2023/02/27 05:03:53;;;;;;;;;2.00;0.00;;;;;2.32;47.72;102251.50;2049509;28;2712758;-74
2023/02/27 05:05:14;;;;;;;;;10.67;6.50;;;;;2.33;46.72;102246.34;2052933;28;2742970;-74
2023/02/27 05:06:34;;;;;;;;;8.67;7.33;;;;;2.34;47.82;102252.41;2053002;27;2746161;-74
2023/02/27 05:07:53;;;;;;;;;9.50;8.33;;;;;2.34;47.69;102253.31;2052258;27;2741928;-74
2023/02/27 05:09:19;;;;;;;;;7.67;4.33;;;;;2.34;47.20;102257.59;2051581;28;2748656;-74
2023/02/27 05:10:37;;;;;;;;;6.50;6.00;;;;;2.35;47.60;102262.81;2050893;28;2742991;-73
2023/02/27 05:12:11;;;;;;;;;7.83;7.33;;;;;2.35;47.59;102262.81;2050898;28;2742484;-73
2023/02/27 05:13:37;;;;;;;;;6.50;6.50;;;;;2.35;47.97;102255.03;2044415;28;2737101;-73
2023/02/27 05:14:57;;;;;;;;;9.33;7.50;;;;;2.36;47.86;102264.59;2044229;28;2745052;-73
2023/02/27 05:16:22;;;;;;;;;9.67;7.17;;;;;2.35;47.16;102264.53;2044944;28;2756561;-73
2023/02/27 05:17:53;;;;;;;;;5.50;5.17;;;;;2.36;47.82;102263.72;2046856;28;2740881;-73
2023/02/27 05:19:08;;;;;;;;;8.33;7.50;;;;;2.35;47.47;102269.72;2052681;28;2734087;-74
2023/02/27 05:20:26;;;;;;;;;6.83;6.00;;;;;2.34;47.60;102271.47;2051203;27;2737761;-74
2023/02/27 05:22:22;;;;;;;;;8.83;8.33;;;;;2.31;48.02;102276.56;2053347;28;2735704;-73
2023/02/27 05:23:46;;;;;;;;;8.00;6.83;;;;;2.29;48.09;102274.75;2052007;27;2746102;-74
2023/02/27 05:25:05;;;;;;;;;10.33;10.33;;;;;2.27;47.71;102272.13;2024247;28;3490949;-74
2023/02/27 05:26:22;;;;;;;;;10.33;8.67;;;;;2.24;48.08;102272.06;2021977;28;3477339;-74
2023/02/27 05:27:45;;;;;;;;;7.67;7.67;;;;;2.22;48.78;102278.91;2045306;28;2732614;-74
2023/02/27 05:29:27;;;;;;;;;9.50;8.17;;;;;2.19;48.46;102268.44;2051803;27;2746086;-74
2023/02/27 05:30:48;;;;;;;;;9.33;7.00;;;;;2.18;47.91;102275.34;2024704;27;2744115;-74
2023/02/27 05:32:38;;;;;;;;;8.33;5.83;;;;;2.18;48.17;102266.69;2045125;28;2737378;-74
2023/02/27 05:34:02;;;;;;;;;8.67;7.67;;;;;2.16;47.94;102271.84;2053267;28;2731528;-74
2023/02/27 05:35:20;;;;;;;;;7.67;7.67;;;;;2.17;47.95;102276.19;2052795;27;2735705;-74
2023/02/27 05:36:40;;;;;;;;;8.17;7.67;;;;;2.18;48.37;102288.31;2053497;28;2739868;-74
2023/02/27 05:38:21;;;;;;;;;6.33;5.00;;;;;2.18;47.90;102277.06;2052405;28;2748563;-74
2023/02/27 05:39:37;;;;;;;;;8.17;7.50;;;;;2.20;48.67;102280.56;2053046;27;2740977;-74
2023/02/27 05:41:00;;;;;;;;;9.67;7.17;;;;;2.19;48.92;102276.22;2048428;28;2756518;-74
2023/02/27 05:42:20;;;;;;;;;7.33;6.50;;;;;2.18;48.35;102277.94;2044979;28;2746129;-74
2023/02/27 05:43:39;;;;;;;;;9.17;8.67;;;;;2.19;48.70;102289.19;2047032;28;2734710;-74
2023/02/27 05:45:07;;;;;;;;;9.00;7.33;;;;;2.17;48.14;102286.59;2045631;28;2737801;-74
2023/02/27 05:46:27;;;;;;;;;7.00;3.83;;;;;2.16;48.98;102284.81;2045498;28;2737830;-74
2023/02/27 05:47:46;;;;;;;;;9.17;7.00;;;;;2.15;48.14;102280.44;2045513;28;2745120;-74
2023/02/27 05:49:06;;;;;;;;;11.67;8.17;;;;;2.13;48.88;102287.31;2048512;28;2755504;-74
2023/02/27 05:50:28;;;;;;;;;8.00;8.00;;;;;2.13;48.66;102289.91;2043309;28;2744011;-73
2023/02/27 05:51:45;;;;;;;;;9.33;8.00;;;;;2.13;48.11;102287.31;2050349;28;2735689;-73
2023/02/27 05:53:03;;;;;;;;;7.83;6.33;;;;;2.13;48.38;102284.72;2045528;27;2747151;-74
2023/02/27 05:54:27;;;;;;;;;9.67;8.67;;;;;2.13;48.83;102289.91;2043090;28;2750277;-74
2023/02/27 05:55:46;;;;;;;;;8.83;8.17;;;;;2.13;48.51;102295.09;2043849;28;2745064;-74
2023/02/27 05:57:02;;;;;;;;;8.00;7.17;;;;;2.12;48.86;102288.16;2051721;27;2733606;-74
2023/02/27 05:58:22;;;;;;;;;8.67;8.67;;;;;2.12;48.63;102285.56;2045041;28;2737766;-74
2023/02/27 06:00:17;;;;;;;;;7.83;7.67;;;;;2.09;49.21;102288.97;2044390;28;2739829;-74
2023/02/27 06:01:31;;;;;;;;;11.00;9.33;;;;;2.10;49.03;102292.44;2049933;28;2751373;-74
2023/02/27 06:02:44;;;;;;;;;11.33;8.00;;;;;2.09;48.51;102293.25;2000816;27;2764847;-74
2023/02/27 06:03:57;;;;;;;;;7.67;6.00;;;;;2.09;49.02;102290.66;2050212;28;2729475;-74
2023/02/27 06:05:14;;;;;;;;;9.50;8.00;;;;;2.08;48.80;102297.56;2050707;27;2734669;-74
2023/02/27 06:06:29;;;;;;;;;8.83;8.67;;;;;2.09;48.95;102294.16;2051882;27;2727361;-74
2023/02/27 06:07:42;;;;;;;;;10.67;7.50;;;;;2.09;49.09;102294.16;2050364;28;2745102;-74
2023/02/27 06:08:55;;;;;;;;;9.83;7.83;;;;;2.08;48.67;102292.38;2052465;28;2738815;-74
2023/02/27 06:10:06;;;;;;;;;11.33;7.67;;;;;2.09;48.35;102294.16;2015139;28;2766929;-74
2023/02/27 06:11:20;;;;;;;;;10.00;7.00;;;;;2.10;48.87;102290.69;2050242;28;2749250;-74
2023/02/27 06:12:33;;;;;;;;;7.00;6.33;;;;;2.10;49.28;102293.28;2052109;27;2741972;-74